Sunday, February 1, 2015, 12:36 AM EST

KFYJ, West Point, Middle Peninsula Regional Airport

Location: Shacklefords, VA, United States Lat: 37.521
Local Time: 12:36 AM EST ( 5:36 GMT) Lon: -76.764
Time Zone: US/Eastern Elev: 22 ft

Show me the last for .
Show Decoded

2015-02-01 00:15 METAR KFYJ 010515Z AUTO 00000KT 10SM CLR M05/M09 A3029 RMK AO2 T10471088 =
2015-01-31 23:55 METAR KFYJ 010455Z AUTO 00000KT 10SM CLR M04/M09 A3029 RMK AO2 T10431088 =
2015-01-31 23:35 METAR KFYJ 010435Z AUTO 00000KT 10SM CLR M05/M09 A3029 RMK AO2 T10491092 =
2015-01-31 23:15 METAR KFYJ 010415Z AUTO 00000KT 10SM CLR M04/M09 A3030 RMK AO2 T10451086 =
2015-01-31 22:55 METAR KFYJ 010355Z AUTO 00000KT 10SM CLR M05/M09 A3029 RMK AO2 T10501091 =
2015-01-31 22:35 METAR KFYJ 010335Z AUTO 00000KT 10SM CLR M05/M09 A3029 RMK AO2 T10531094 =
2015-01-31 22:15 METAR KFYJ 010315Z AUTO 00000KT 10SM CLR M04/M09 A3030 RMK AO2 T10371089 =
2015-01-31 21:55 METAR KFYJ 010255Z AUTO 00000KT 10SM CLR M04/M09 A3030 RMK AO2 T10411087 =
2015-01-31 21:35 METAR KFYJ 010235Z AUTO 00000KT 10SM CLR M03/M09 A3030 RMK AO2 T10281093 =
2015-01-31 20:55 METAR KFYJ 010155Z AUTO 08003KT 10SM CLR M03/M10 A3031 RMK AO2 T10331104 =
2015-01-31 20:35 METAR KFYJ 010135Z AUTO 00000KT 10SM CLR M03/M10 A3031 RMK AO2 T10261105 =
2015-01-31 19:55 METAR KFYJ 010055Z AUTO 00000KT 10SM CLR M03/M10 A3031 RMK AO2 T10331102 =
2015-01-31 19:35 METAR KFYJ 010035Z AUTO 00000KT 10SM CLR M02/M10 A3032 RMK AO2 T10181101 =
2015-01-31 19:15 METAR KFYJ 010015Z AUTO 14003KT 10SM CLR M03/M10 A3032 RMK AO2 T10261102 =
2015-01-31 18:55 METAR KFYJ 312355Z AUTO 00000KT 10SM CLR M01/M11 A3031 RMK AO2 T10071107 10050
                 21023 =
2015-01-31 18:35 METAR KFYJ 312335Z AUTO 00000KT 10SM CLR M01/M12 A3030 RMK AO2 T10141119 =
2015-01-31 18:15 METAR KFYJ 312315Z AUTO 00000KT 10SM CLR 00/M14 A3030 RMK AO2 T00001140 =
2015-01-31 17:55 METAR KFYJ 312255Z AUTO 00000KT 10SM CLR M01/M13 A3030 RMK AO2 T10061126 =
2015-01-31 17:35 METAR KFYJ 312235Z AUTO 00000KT 10SM CLR 02/M15 A3030 RMK AO2 T00181155 =
2015-01-31 17:15 METAR KFYJ 312215Z AUTO 26003KT 10SM CLR 03/M18 A3029 RMK AO2 T00281176 =
2015-01-31 16:55 METAR KFYJ 312155Z AUTO 28004KT 10SM CLR 04/M18 A3029 RMK AO2 T00381180 =
2015-01-31 16:35 METAR KFYJ 312135Z AUTO 28005KT 10SM CLR 04/M19 A3029 RMK AO2 T00441189 =
2015-01-31 16:15 METAR KFYJ 312115Z AUTO 28003KT 10SM CLR 05/M18 A3030 RMK AO2 T00461183 =
2015-01-31 15:55 METAR KFYJ 312055Z AUTO 27007KT 10SM CLR 05/M19 A3029 RMK AO2 T00461188 =
2015-01-31 15:35 METAR KFYJ 312035Z AUTO 29007KT 10SM CLR 05/M19 A3029 RMK AO2 T00471192 =
2015-01-31 15:15 METAR KFYJ 312015Z AUTO 30008KT 10SM CLR 05/M19 A3030 RMK AO2 T00461190 =
2015-01-31 14:55 METAR KFYJ 311955Z AUTO 28009KT 10SM CLR 04/M19 A3030 RMK AO2 T00441190 =
2015-01-31 14:35 METAR KFYJ 311935Z AUTO 29010G15KT 10SM CLR 04/M19 A3030 RMK AO2 T00441195 =
2015-01-31 14:15 METAR KFYJ 311915Z AUTO 27008KT 10SM CLR 04/M20 A3031 RMK AO2 T00411198 =
2015-01-31 13:55 METAR KFYJ 311855Z AUTO 27007KT 10SM CLR 04/M19 A3031 RMK AO2 T00371194 =
2015-01-31 13:35 METAR KFYJ 311835Z AUTO 29009KT 10SM CLR 04/M19 A3032 RMK AO2 T00351192 =
2015-01-31 13:15 METAR KFYJ 311815Z AUTO 27010G19KT 10SM CLR 03/M19 A3032 RMK AO2 T00331189 =
2015-01-31 12:55 METAR KFYJ 311755Z AUTO 27008G14KT 10SM CLR 03/M19 A3032 RMK AO2 T00311195 10031
                 21051 =
2015-01-31 12:35 METAR KFYJ 311735Z AUTO 27008KT 10SM CLR 03/M18 A3034 RMK AO2 T00251182 =
2015-01-31 12:15 METAR KFYJ 311715Z AUTO 28010KT 10SM CLR 02/M18 A3035 RMK AO2 T00201181 =
2015-01-31 11:55 METAR KFYJ 311655Z AUTO 26010G15KT 10SM CLR 02/M18 A3036 RMK AO2 T00171183 =
2015-01-31 11:35 METAR KFYJ 311635Z AUTO 31007KT 280V350 10SM CLR 02/M21 A3037 RMK AO2 T00191214
                 =
2015-01-31 11:15 METAR KFYJ 311615Z AUTO 30007G14KT 10SM CLR 01/M20 A3038 RMK AO2 T00121205 =
2015-01-31 10:55 METAR KFYJ 311555Z AUTO 30008G15KT 10SM CLR 01/M20 A3038 RMK AO2 T00081201 =
2015-01-31 10:35 METAR KFYJ 311535Z AUTO 29008KT 10SM CLR 00/M19 A3038 RMK AO2 T00001191 =
2015-01-31 10:15 METAR KFYJ 311515Z AUTO 30008KT 10SM CLR 00/M19 A3038 RMK AO2 T10011192 =
2015-01-31 09:55 METAR KFYJ 311455Z AUTO 31005KT 10SM CLR M01/M19 A3037 RMK AO2 T10091187 =
2015-01-31 09:35 METAR KFYJ 311435Z AUTO 30007KT 10SM CLR M02/M18 A3037 RMK AO2 T10161183 =
2015-01-31 09:15 METAR KFYJ 311415Z AUTO 32005KT 10SM CLR M02/M16 A3036 RMK AO2 T10211165 =
2015-01-31 08:55 METAR KFYJ 311355Z AUTO 32007KT 10SM CLR M03/M17 A3036 RMK AO2 T10261166 =
2015-01-31 08:35 METAR KFYJ 311335Z AUTO 32007KT 10SM CLR M03/M16 A3036 RMK AO2 T10341158 =
2015-01-31 08:15 METAR KFYJ 311315Z AUTO 30005KT 10SM CLR M04/M15 A3037 RMK AO2 T10411153 =
2015-01-31 07:55 METAR KFYJ 311255Z AUTO 31006KT 10SM CLR M05/M15 A3037 RMK AO2 T10461154 =
2015-01-31 07:35 METAR KFYJ 311235Z AUTO 31004KT 10SM CLR M05/M15 A3036 RMK AO2 T10501152 =
2015-01-31 07:15 METAR KFYJ 311215Z AUTO 31004KT 10SM CLR M05/M15 A3036 RMK AO2 T10491154 =
2015-01-31 06:55 METAR KFYJ 311155Z AUTO 31003KT 10SM CLR M05/M15 A3034 RMK AO2 T10501154 11030
                 21051 =
2015-01-31 06:35 METAR KFYJ 311135Z AUTO 31004KT 10SM CLR M05/M15 A3033 RMK AO2 T10501152 =
2015-01-31 06:15 METAR KFYJ 311115Z AUTO 33003KT 10SM CLR M05/M15 A3032 RMK AO2 T10501154 =
2015-01-31 05:55 METAR KFYJ 311055Z AUTO 30005KT 10SM CLR M05/M15 A3032 RMK AO2 T10481153 =
2015-01-31 05:15 METAR KFYJ 311015Z AUTO 32006KT 10SM CLR M04/M15 A3031 RMK AO2 T10451153 =
2015-01-31 04:55 METAR KFYJ 310955Z AUTO 32007G15KT 290V010 10SM CLR M04/M16 A3031 RMK AO2
                 T10431157 =
2015-01-31 04:35 METAR KFYJ 310935Z AUTO 32007KT 10SM CLR M04/M16 A3031 RMK AO2 T10451156 =
2015-01-31 04:15 METAR KFYJ 310915Z AUTO 33006KT 10SM CLR M04/M15 A3031 RMK AO2 T10431154 =
2015-01-31 03:55 METAR KFYJ 310855Z AUTO 32007G14KT 10SM CLR M04/M16 A3031 RMK AO2 T10401156 =
2015-01-31 03:35 METAR KFYJ 310835Z AUTO 31008KT 10SM CLR M04/M15 A3031 RMK AO2 T10401155 =
2015-01-31 03:15 METAR KFYJ 310815Z AUTO 32008G15KT 10SM CLR M04/M15 A3031 RMK AO2 T10381155 =
2015-01-31 02:55 METAR KFYJ 310755Z AUTO 32008KT 10SM CLR M04/M16 A3030 RMK AO2 T10371156 =
2015-01-31 02:35 METAR KFYJ 310735Z AUTO 32007KT 10SM CLR M03/M15 A3030 RMK AO2 T10351155 =
2015-01-31 02:15 METAR KFYJ 310715Z AUTO 31006KT 10SM CLR M03/M16 A3031 RMK AO2 T10351157 =
2015-01-31 01:35 METAR KFYJ 310635Z AUTO 31007G15KT 10SM CLR M03/M16 A3029 RMK AO2 T10311161 =
2015-01-31 01:15 METAR KFYJ 310615Z AUTO 31007KT 10SM CLR M03/M16 A3029 RMK AO2 T10301162 =
2015-01-31 00:55 METAR KFYJ 310555Z AUTO 30006KT 10SM CLR M03/M16 A3029 RMK AO2 T10301157 10021
                 21030 400821030 =

Support USWX by starting your Amazon purchase here.